Time;durP1;ratioP1;P1;durP2;ratioP2;P2;SDS_P1;SDS_P2;PMS_P1;PMS_P2;Temp;Humidity;BMP_temperature;BMP_pressure;BME280_temperature;BME280_humidity;BME280_pressure;Samples;Min_cycle;Max_cycle;Signal;HPM_P1;HPM_P2
2023/05/28 00:05:15;;;;;;;;;;;;;;;;;;12842117;23;20024;-84
2023/05/28 00:10:19;;;;;;;3.55;2.40;;;;;;;;;;12840479;23;19920;-84
2023/05/28 00:15:22;;;;;;;4.05;2.25;;;;;;;;;;12843044;23;20550;-83
2023/05/28 00:20:27;;;;;;;4.00;2.10;;;;;;;;;;12814229;23;20494;-84
2023/05/28 00:25:30;;;;;;;3.67;2.08;;;;;;;;;;12777733;23;20083;-84
2023/05/28 00:30:33;;;;;;;4.28;2.05;;;;;;;;;;12847778;23;20032;-84
2023/05/28 00:35:38;;;;;;;2.88;1.90;;;;;;;;;;12850871;23;20352;-84
2023/05/28 00:40:44;;;;;;;3.60;2.03;;;;;;;;;;12852556;23;20024;-84
2023/05/28 00:45:48;;;;;;;6.40;2.70;;;;;;;;;;12849361;23;20028;-84
2023/05/28 00:50:54;;;;;;;3.60;2.08;;;;;;;;;;12849875;23;20024;-84
2023/05/28 00:55:58;;;;;;;3.53;2.13;;;;;;;;;;12851393;23;20101;-85
2023/05/28 01:01:01;;;;;;;3.70;1.90;;;;;;;;;;12849925;23;20035;-84
2023/05/28 01:06:11;;;;;;;3.40;2.38;;;;;;;;;;12849976;23;20067;-85
2023/05/28 01:11:19;;;;;;;4.35;2.22;;;;;;;;;;12851178;23;20067;-85
2023/05/28 01:16:22;;;;;;;4.10;2.33;;;;;;;;;;12849536;23;20013;-84
2023/05/28 01:21:28;;;;;;;3.67;2.05;;;;;;;;;;12851250;23;20507;-83
2023/05/28 01:26:33;;;;;;;3.30;1.92;;;;;;;;;;12850454;23;20032;-84
2023/05/28 01:31:36;;;;;;;2.72;1.90;;;;;;;;;;12848651;23;20024;-84
2023/05/28 01:36:45;;;;;;;3.00;1.90;;;;;;;;;;12865917;22;20025;-84
2023/05/28 01:41:50;;;;;;;3.70;1.98;;;;;;;;;;12846289;23;20029;-85
2023/05/28 01:46:56;;;;;;;3.47;2.10;;;;;;;;;;12848004;23;20028;-85
2023/05/28 01:52:02;;;;;;;3.63;2.13;;;;;;;;;;12849843;23;20025;-85
2023/05/28 01:57:07;;;;;;;4.57;2.70;;;;;;;;;;12849678;23;20071;-84
2023/05/28 02:02:11;;;;;;;3.17;2.25;;;;;;;;;;12849659;23;20080;-84
2023/05/28 02:07:15;;;;;;;3.22;2.03;;;;;;;;;;12850656;23;20024;-84
2023/05/28 02:12:20;;;;;;;3.83;2.22;;;;;;;;;;12849368;23;20472;-84
2023/05/28 02:17:24;;;;;;;5.90;2.30;;;;;;;;;;12852249;23;20024;-84
2023/05/28 02:22:27;;;;;;;3.45;2.03;;;;;;;;;;12877563;23;20021;-84
2023/05/28 02:27:32;;;;;;;3.70;2.17;;;;;;;;;;12855109;23;20028;-84
2023/05/28 02:32:35;;;;;;;3.55;1.98;;;;;;;;;;12853300;23;20030;-85
2023/05/28 02:37:39;;;;;;;3.58;1.70;;;;;;;;;;12851519;23;20564;-85
2023/05/28 02:42:44;;;;;;;3.10;2.03;;;;;;;;;;12850617;23;20562;-85
2023/05/28 02:47:48;;;;;;;3.85;1.98;;;;;;;;;;12850497;23;20507;-84
2023/05/28 02:52:54;;;;;;;4.40;2.17;;;;;;;;;;12853713;23;20117;-85
2023/05/28 02:57:59;;;;;;;3.38;2.03;;;;;;;;;;12855049;23;20021;-85
2023/05/28 03:03:02;;;;;;;3.42;2.10;;;;;;;;;;12851876;23;20020;-85
2023/05/28 03:08:06;;;;;;;6.00;2.30;;;;;;;;;;12852612;23;20025;-85
2023/05/28 03:13:11;;;;;;;2.80;1.95;;;;;;;;;;12855047;23;20024;-85
2023/05/28 03:18:15;;;;;;;5.53;2.25;;;;;;;;;;12855983;23;20024;-85
2023/05/28 03:23:19;;;;;;;3.17;2.03;;;;;;;;;;12854655;23;20099;-84
2023/05/28 03:28:47;;;;;;;2.97;1.90;;;;;;;;;;12850228;23;20471;-84
2023/05/28 03:34:17;;;;;;;3.08;1.88;;;;;;;;;;12853443;23;20048;-85
2023/05/28 03:39:21;;;;;;;3.58;2.00;;;;;;;;;;12857016;23;20087;-84
2023/05/28 03:44:27;;;;;;;3.20;2.08;;;;;;;;;;12849079;23;20029;-85
2023/05/28 03:49:31;;;;;;;3.75;2.10;;;;;;;;;;12852914;23;20094;-85
2023/05/28 03:54:35;;;;;;;3.30;1.80;;;;;;;;;;12850864;23;20463;-84
2023/05/28 03:59:40;;;;;;;4.72;1.98;;;;;;;;;;12851651;23;20025;-83
2023/05/28 04:04:43;;;;;;;4.18;2.17;;;;;;;;;;12852018;23;20027;-83
2023/05/28 04:09:47;;;;;;;6.32;2.40;;;;;;;;;;12851976;23;20782;-85
2023/05/28 04:14:52;;;;;;;3.33;1.90;;;;;;;;;;12853563;23;20020;-84
2023/05/28 04:19:55;;;;;;;3.05;2.00;;;;;;;;;;12849372;23;20024;-85
2023/05/28 04:24:59;;;;;;;3.20;1.70;;;;;;;;;;12850578;23;20503;-85
2023/05/28 04:30:05;;;;;;;3.40;1.80;;;;;;;;;;12850675;23;20032;-84
2023/05/28 04:35:09;;;;;;;3.03;2.00;;;;;;;;;;12851302;23;20040;-85
2023/05/28 04:40:13;;;;;;;2.83;1.85;;;;;;;;;;12850366;23;20472;-84
2023/05/28 04:45:18;;;;;;;3.33;1.85;;;;;;;;;;12874553;22;20021;-85
2023/05/28 04:50:22;;;;;;;2.50;1.90;;;;;;;;;;12850694;23;20039;-85
2023/05/28 04:55:26;;;;;;;3.38;1.90;;;;;;;;;;12847997;23;20078;-85
2023/05/28 05:00:31;;;;;;;3.50;1.90;;;;;;;;;;12846949;23;20079;-85
2023/05/28 05:05:36;;;;;;;3.70;1.92;;;;;;;;;;12845060;23;20025;-85
2023/05/28 05:10:39;;;;;;;2.97;1.67;;;;;;;;;;12847993;23;20020;-85
2023/05/28 05:15:45;;;;;;;2.85;1.73;;;;;;;;;;12847904;23;20020;-84
2023/05/28 05:20:49;;;;;;;3.63;1.77;;;;;;;;;;12849208;23;20020;-85
2023/05/28 05:25:53;;;;;;;1.80;1.50;;;;;;;;;;12848039;23;20051;-84
2023/05/28 05:30:57;;;;;;;2.15;1.40;;;;;;;;;;12847993;23;20043;-83
2023/05/28 05:36:01;;;;;;;3.13;1.67;;;;;;;;;;12847564;23;20025;-84
2023/05/28 05:41:21;;;;;;;2.40;1.33;;;;;;;;;;12850190;23;20075;-83
2023/05/28 05:46:30;;;;;;;4.82;2.00;;;;;;;;;;12850668;23;20079;-84
2023/05/28 05:51:34;;;;;;;2.67;1.70;;;;;;;;;;12876744;23;20108;-84
2023/05/28 05:56:37;;;;;;;2.67;1.80;;;;;;;;;;12853090;23;20087;-85
2023/05/28 06:01:42;;;;;;;2.75;1.63;;;;;;;;;;12851812;23;20230;-84
2023/05/28 06:06:46;;;;;;;3.30;1.67;;;;;;;;;;12849889;23;20052;-84
2023/05/28 06:12:08;;;;;;;3.50;2.13;;;;;;;;;;12864890;23;20024;-84
2023/05/28 06:17:12;;;;;;;3.63;1.88;;;;;;;;;;12874821;22;20035;-83
2023/05/28 06:22:16;;;;;;;7.38;2.47;;;;;;;;;;12846266;23;20032;-83
2023/05/28 06:27:20;;;;;;;5.38;2.97;;;;;;;;;;12849072;23;20027;-83
2023/05/28 06:32:25;;;;;;;4.85;2.22;;;;;;;;;;12849329;23;20028;-83
2023/05/28 06:37:28;;;;;;;3.95;1.92;;;;;;;;;;12849275;23;20028;-83
2023/05/28 06:42:32;;;;;;;2.83;1.30;;;;;;;;;;12848663;23;20028;-83
2023/05/28 06:47:57;;;;;;;2.88;1.88;;;;;;;;;;12847168;23;20031;-82
2023/05/28 06:53:01;;;;;;;2.35;1.50;;;;;;;;;;12847352;23;20225;-84
2023/05/28 06:58:05;;;;;;;4.05;2.00;;;;;;;;;;12845815;23;20044;-83
2023/05/28 07:03:28;;;;;;;2.50;1.40;;;;;;;;;;12846085;23;20020;-83
2023/05/28 07:08:44;;;;;;;2.92;1.50;;;;;;;;;;12846146;23;20472;-83
2023/05/28 07:13:48;;;;;;;3.85;1.75;;;;;;;;;;12846701;23;20688;-83
2023/05/28 07:18:53;;;;;;;2.50;1.50;;;;;;;;;;12845853;23;20043;-83
2023/05/28 07:23:56;;;;;;;3.72;1.52;;;;;;;;;;12843059;23;20028;-84
2023/05/28 07:29:02;;;;;;;4.03;1.75;;;;;;;;;;12844324;23;20040;-84
2023/05/28 07:34:07;;;;;;;2.80;1.50;;;;;;;;;;12845194;23;20031;-83
2023/05/28 07:39:13;;;;;;;2.05;1.20;;;;;;;;;;12844092;23;20440;-84
2023/05/28 07:44:18;;;;;;;2.47;1.58;;;;;;;;;;12845931;23;20063;-84
2023/05/28 07:49:22;;;;;;;3.20;1.88;;;;;;;;;;12847490;23;20028;-84
2023/05/28 07:54:26;;;;;;;5.80;2.15;;;;;;;;;;12845556;23;20119;-83
2023/05/28 07:59:30;;;;;;;6.88;1.92;;;;;;;;;;12843818;23;20024;-83
2023/05/28 08:04:34;;;;;;;4.00;2.15;;;;;;;;;;12842841;23;20028;-83
2023/05/28 08:09:38;;;;;;;3.22;1.38;;;;;;;;;;12843451;23;20047;-83
2023/05/28 08:14:42;;;;;;;7.45;3.50;;;;;;;;;;12842396;23;20079;-84
2023/05/28 08:19:47;;;;;;;2.40;1.52;;;;;;;;;;12842308;23;20024;-84
2023/05/28 08:25:11;;;;;;;5.18;3.00;;;;;;;;;;12839694;23;20067;-84
2023/05/28 08:30:15;;;;;;;3.80;1.75;;;;;;;;;;12840011;23;20028;-84
2023/05/28 08:35:27;;;;;;;3.80;1.90;;;;;;;;;;12839686;23;20978;-84
2023/05/28 08:40:39;;;;;;;4.68;2.08;;;;;;;;;;12864181;23;20028;-83
2023/05/28 08:45:44;;;;;;;3.22;1.35;;;;;;;;;;12837828;23;20032;-83
2023/05/28 08:50:51;;;;;;;2.65;1.30;;;;;;;;;;12837780;23;20029;-84
2023/05/28 08:56:04;;;;;;;2.03;0.98;;;;;;;;;;12837859;23;20517;-83
2023/05/28 09:01:10;;;;;;;2.33;1.20;;;;;;;;;;12837314;23;20395;-82
2023/05/28 09:06:24;;;;;;;3.28;1.73;;;;;;;;;;12855294;23;20024;-84
2023/05/28 09:11:29;;;;;;;3.30;1.73;;;;;;;;;;12836084;23;20025;-83
2023/05/28 09:16:35;;;;;;;2.60;1.58;;;;;;;;;;12835905;23;20028;-83
2023/05/28 09:21:55;;;;;;;1.92;1.20;;;;;;;;;;12835491;23;20079;-83
2023/05/28 09:27:04;;;;;;;3.92;1.77;;;;;;;;;;12836355;23;20580;-83
2023/05/28 09:32:09;;;;;;;2.33;1.55;;;;;;;;;;12836145;23;20534;-83
2023/05/28 09:37:17;;;;;;;2.88;1.58;;;;;;;;;;12837540;23;20028;-84
2023/05/28 09:42:21;;;;;;;2.63;1.52;;;;;;;;;;12840346;23;20020;-84
2023/05/28 09:47:25;;;;;;;4.35;1.60;;;;;;;;;;12845138;23;20021;-85
2023/05/28 09:52:30;;;;;;;2.05;1.20;;;;;;;;;;12844741;23;20032;-84
2023/05/28 09:57:36;;;;;;;2.47;1.15;;;;;;;;;;12845382;23;20025;-84
2023/05/28 10:02:49;;;;;;;2.75;1.42;;;;;;;;;;12846357;23;20039;-84
2023/05/28 10:07:56;;;;;;;2.05;1.40;;;;;;;;;;12871280;23;20056;-82
2023/05/28 10:13:01;;;;;;;3.55;1.48;;;;;;;;;;12857977;23;20044;-81
2023/05/28 10:18:05;;;;;;;2.03;1.20;;;;;;;;;;12870530;23;20035;-81
2023/05/28 10:23:11;;;;;;;3.90;1.90;;;;;;;;;;12869301;23;20070;-82
2023/05/28 10:28:16;;;;;;;2.40;1.25;;;;;;;;;;12864785;23;20431;-81
2023/05/28 10:33:20;;;;;;;2.42;1.60;;;;;;;;;;12860275;23;20024;-81
2023/05/28 10:38:27;;;;;;;5.50;1.60;;;;;;;;;;12860857;23;20016;-81
2023/05/28 10:43:45;;;;;;;3.28;1.40;;;;;;;;;;12860097;23;20025;-83
2023/05/28 10:49:12;;;;;;;2.80;1.55;;;;;;;;;;12857974;23;20747;-83
2023/05/28 10:54:23;;;;;;;2.83;1.70;;;;;;;;;;12850308;23;20051;-83
2023/05/28 10:59:43;;;;;;;2.88;1.70;;;;;;;;;;12853850;23;20407;-83
2023/05/28 11:04:50;;;;;;;3.47;2.03;;;;;;;;;;12860392;23;20036;-83
2023/05/28 11:09:57;;;;;;;4.38;2.08;;;;;;;;;;12864088;23;20020;-83
2023/05/28 11:15:00;;;;;;;2.55;1.52;;;;;;;;;;12862344;23;20395;-83
2023/05/28 11:20:04;;;;;;;3.25;1.80;;;;;;;;;;12861118;23;20020;-83
2023/05/28 11:25:12;;;;;;;3.33;1.80;;;;;;;;;;12862860;23;20047;-84
2023/05/28 11:30:17;;;;;;;2.92;1.85;;;;;;;;;;12862569;23;20021;-84
2023/05/28 11:35:20;;;;;;;3.42;1.67;;;;;;;;;;12862018;23;20051;-84
2023/05/28 11:40:25;;;;;;;4.43;2.00;;;;;;;;;;12858313;23;20024;-84
2023/05/28 11:45:28;;;;;;;2.22;1.50;;;;;;;;;;12854619;23;20063;-85
2023/05/28 11:50:32;;;;;;;3.15;1.60;;;;;;;;;;12857201;23;20012;-84
2023/05/28 11:55:38;;;;;;;3.20;1.85;;;;;;;;;;12878211;23;20017;-84
2023/05/28 12:00:41;;;;;;;2.28;1.50;;;;;;;;;;12857450;23;20021;-84
2023/05/28 12:05:45;;;;;;;2.78;1.80;;;;;;;;;;12855164;23;20503;-84
2023/05/28 12:10:49;;;;;;;2.70;1.90;;;;;;;;;;12855478;23;20328;-83
2023/05/28 12:16:05;;;;;;;;;;;;;;;;;;12858129;23;20043;-84
2023/05/28 12:21:12;;;;;;;3.72;1.67;;;;;;;;;;12875345;23;19916;-84
2023/05/28 12:26:18;;;;;;;3.00;1.88;;;;;;;;;;12854616;23;20020;-84
2023/05/28 12:31:28;;;;;;;2.40;1.60;;;;;;;;;;12856389;23;20020;-83
2023/05/28 12:36:32;;;;;;;3.65;2.00;;;;;;;;;;12854266;23;20038;-84
2023/05/28 12:41:37;;;;;;;3.40;2.03;;;;;;;;;;12856015;23;20025;-84
2023/05/28 12:46:41;;;;;;;4.10;1.92;;;;;;;;;;12851486;23;20076;-85
2023/05/28 12:51:44;;;;;;;2.67;1.75;;;;;;;;;;12852485;23;20025;-84
2023/05/28 12:56:49;;;;;;;3.05;2.13;;;;;;;;;;12853348;23;20047;-84
2023/05/28 13:01:54;;;;;;;3.15;1.90;;;;;;;;;;12852159;23;20025;-84
2023/05/28 13:06:57;;;;;;;2.83;2.03;;;;;;;;;;12867379;23;20077;-83
2023/05/28 13:12:02;;;;;;;1.65;1.40;;;;;;;;;;12850936;23;20353;-84
2023/05/28 13:17:06;;;;;;;2.75;1.90;;;;;;;;;;12848632;23;20031;-84
2023/05/28 13:22:12;;;;;;;2.40;1.70;;;;;;;;;;12848022;23;20460;-83
2023/05/28 13:27:17;;;;;;;2.60;1.70;;;;;;;;;;12845857;23;20025;-84
2023/05/28 13:32:21;;;;;;;;;;;;;;;;;;12840849;23;20078;-84
2023/05/28 13:37:26;;;;;;;1.98;1.33;;;;;;;;;;12843440;23;20234;-84
2023/05/28 13:42:34;;;;;;;2.70;2.17;;;;;;;;;;12844801;23;20133;-84
2023/05/28 13:47:38;;;;;;;2.20;1.90;;;;;;;;;;12847929;23;20725;-84
2023/05/28 13:52:43;;;;;;;2.55;1.98;;;;;;;;;;12846884;23;20024;-83
2023/05/28 13:57:48;;;;;;;2.80;2.22;;;;;;;;;;12854149;23;20048;-83
2023/05/28 14:02:51;;;;;;;2.80;1.90;;;;;;;;;;12852398;23;20024;-84
2023/05/28 14:07:55;;;;;;;2.60;2.00;;;;;;;;;;12852981;23;20448;-84
2023/05/28 14:13:53;;;;;;;3.40;2.10;;;;;;;;;;12813855;23;20021;-83
2023/05/28 14:18:58;;;;;;;2.10;1.80;;;;;;;;;;12642473;23;20017;-82
2023/05/28 14:24:01;;;;;;;;;;;;;;;;;;12832365;23;20043;-82
2023/05/28 14:29:05;;;;;;;3.03;1.88;;;;;;;;;;12867025;23;19966;-83
2023/05/28 14:34:10;;;;;;;3.72;2.88;;;;;;;;;;12886288;22;20051;-84
2023/05/28 14:39:13;;;;;;;3.20;2.38;;;;;;;;;;12877388;23;20016;-84
2023/05/28 14:44:16;;;;;;;3.35;2.17;;;;;;;;;;12877266;22;20036;-84
2023/05/28 14:49:21;;;;;;;3.30;2.13;;;;;;;;;;12875811;23;20052;-83
2023/05/28 14:54:24;;;;;;;2.45;1.90;;;;;;;;;;12876159;22;20020;-83
2023/05/28 14:59:28;;;;;;;3.67;2.50;;;;;;;;;;12902305;23;20497;-83
2023/05/28 15:04:32;;;;;;;3.13;2.10;;;;;;;;;;12877547;22;20048;-83
2023/05/28 15:09:36;;;;;;;3.70;2.30;;;;;;;;;;12877169;23;20020;-83
2023/05/28 15:14:39;;;;;;;4.78;2.55;;;;;;;;;;12873473;22;20182;-83
2023/05/28 15:19:44;;;;;;;3.42;2.75;;;;;;;;;;12901920;23;20039;-84
2023/05/28 15:24:49;;;;;;;3.30;2.38;;;;;;;;;;12874662;22;20032;-84
2023/05/28 15:29:53;;;;;;;2.93;2.10;;;;;;;;;;12874586;23;20024;-84
2023/05/28 15:34:59;;;;;;;2.67;2.00;;;;;;;;;;12874890;22;20287;-83
2023/05/28 15:40:07;;;;;;;3.47;1.88;;;;;;;;;;12876369;23;20055;-84
2023/05/28 15:45:11;;;;;;;3.35;2.20;;;;;;;;;;12874040;22;20028;-84
2023/05/28 15:50:16;;;;;;;3.58;2.13;;;;;;;;;;12902795;23;20055;-83
2023/05/28 15:55:19;;;;;;;;;;;;;;;;;;12904092;22;20102;-83
2023/05/28 16:00:24;;;;;;;1.63;1.48;;;;;;;;;;12903885;23;19969;-83
2023/05/28 16:05:29;;;;;;;3.97;1.80;;;;;;;;;;12874584;23;20168;-84
2023/05/28 16:10:33;;;;;;;3.15;1.73;;;;;;;;;;12924545;23;20044;-83
2023/05/28 16:15:37;;;;;;;2.90;1.80;;;;;;;;;;12901083;22;20048;-83
2023/05/28 16:20:42;;;;;;;2.20;1.63;;;;;;;;;;12900205;23;20020;-83
2023/05/28 16:25:46;;;;;;;;;;;;;;;;;;12876763;23;20402;-83
2023/05/28 16:30:49;;;;;;;2.13;1.52;;;;;;;;;;12876134;23;20145;-83
2023/05/28 16:35:55;;;;;;;2.95;1.70;;;;;;;;;;12919602;22;20028;-83
2023/05/28 16:40:59;;;;;;;2.45;1.65;;;;;;;;;;12918775;23;20062;-84
2023/05/28 16:46:03;;;;;;;2.22;1.58;;;;;;;;;;12873746;23;20028;-84
2023/05/28 16:51:09;;;;;;;1.98;1.35;;;;;;;;;;12872410;23;20027;-84
2023/05/28 16:56:13;;;;;;;1.42;1.30;;;;;;;;;;12868550;23;20027;-84
2023/05/28 17:01:18;;;;;;;3.08;1.50;;;;;;;;;;12896237;23;20076;-83
2023/05/28 17:06:23;;;;;;;1.65;1.23;;;;;;;;;;12865933;23;20023;-84
2023/05/28 17:11:27;;;;;;;2.60;1.43;;;;;;;;;;12896454;23;20024;-84
2023/05/28 17:16:30;;;;;;;3.33;1.50;;;;;;;;;;12870064;23;20448;-83
2023/05/28 17:21:36;;;;;;;2.17;1.40;;;;;;;;;;12870963;23;20362;-83
2023/05/28 17:26:40;;;;;;;1.75;1.35;;;;;;;;;;12869545;23;20031;-84
2023/05/28 17:31:43;;;;;;;2.25;1.48;;;;;;;;;;12801128;23;1046464;-84
2023/05/28 17:36:48;;;;;;;2.25;1.55;;;;;;;;;;12873265;23;20026;-84
2023/05/28 17:41:52;;;;;;;1.75;1.48;;;;;;;;;;12868795;23;20070;-84
2023/05/28 17:46:55;;;;;;;2.40;1.25;;;;;;;;;;12869860;23;20111;-84
2023/05/28 17:52:00;;;;;;;2.03;1.30;;;;;;;;;;12916158;23;20075;-85
2023/05/28 17:57:05;;;;;;;2.90;1.30;;;;;;;;;;12878668;23;20028;-84
2023/05/28 18:02:08;;;;;;;2.03;1.43;;;;;;;;;;12872446;23;20052;-84
2023/05/28 18:07:14;;;;;;;3.00;1.40;;;;;;;;;;12896028;22;20230;-84
2023/05/28 18:12:19;;;;;;;1.65;1.25;;;;;;;;;;12871936;23;20024;-83
2023/05/28 18:17:24;;;;;;;1.80;1.10;;;;;;;;;;12895345;23;20020;-84
2023/05/28 18:22:29;;;;;;;;;;;;;;;;;;12870704;22;20059;-84
2023/05/28 18:27:33;;;;;;;3.10;1.00;;;;;;;;;;12872512;23;20436;-85
2023/05/28 18:32:37;;;;;;;2.28;1.40;;;;;;;;;;12871732;22;20031;-84
2023/05/28 18:37:42;;;;;;;2.40;1.45;;;;;;;;;;12898264;23;20028;-84
2023/05/28 18:42:45;;;;;;;1.33;1.15;;;;;;;;;;12872580;22;20058;-84
2023/05/28 18:47:49;;;;;;;1.83;1.00;;;;;;;;;;12874518;23;20048;-84
2023/05/28 18:52:53;;;;;;;2.90;1.27;;;;;;;;;;12874364;22;20024;-84
2023/05/28 18:57:57;;;;;;;2.17;1.30;;;;;;;;;;12876062;23;20459;-84
2023/05/28 19:03:01;;;;;;;3.45;1.52;;;;;;;;;;12912050;22;20531;-84
2023/05/28 19:08:05;;;;;;;2.13;1.42;;;;;;;;;;12912408;23;20240;-84
2023/05/28 19:13:09;;;;;;;4.22;1.60;;;;;;;;;;12874573;22;20040;-84
2023/05/28 19:18:13;;;;;;;5.47;1.70;;;;;;;;;;12902262;23;20031;-84
2023/05/28 19:23:18;;;;;;;2.95;1.70;;;;;;;;;;12899991;22;20030;-85
2023/05/28 19:28:22;;;;;;;2.40;1.48;;;;;;;;;;12909880;23;20039;-86
2023/05/28 19:33:25;;;;;;;3.45;1.52;;;;;;;;;;12900803;22;20032;-86
2023/05/28 19:38:31;;;;;;;2.20;1.40;;;;;;;;;;12902139;23;20059;-86
2023/05/28 19:43:35;;;;;;;2.20;1.35;;;;;;;;;;12873704;22;20687;-86
2023/05/28 19:48:38;;;;;;;6.15;1.38;;;;;;;;;;12874133;23;20753;-86
2023/05/28 19:53:47;;;;;;;2.45;1.50;;;;;;;;;;12877017;22;20039;-86
2023/05/28 19:58:50;;;;;;;4.07;1.88;;;;;;;;;;12912843;23;20020;-86
2023/05/28 20:03:55;;;;;;;4.43;1.70;;;;;;;;;;12875037;22;20028;-86
2023/05/28 20:09:00;;;;;;;3.95;2.03;;;;;;;;;;12900455;23;20020;-85
2023/05/28 20:14:04;;;;;;;3.23;1.57;;;;;;;;;;12875447;22;20030;-85
2023/05/28 20:19:08;;;;;;;2.42;1.52;;;;;;;;;;12875460;23;20020;-84
2023/05/28 20:24:13;;;;;;;1.98;1.40;;;;;;;;;;12898636;22;20478;-85
2023/05/28 20:29:19;;;;;;;3.05;1.42;;;;;;;;;;12900154;22;20031;-85
2023/05/28 20:34:23;;;;;;;2.10;1.52;;;;;;;;;;12881148;22;20659;-85
2023/05/28 20:39:28;;;;;;;2.40;1.90;;;;;;;;;;12882161;23;20028;-86
2023/05/28 20:44:35;;;;;;;3.87;1.60;;;;;;;;;;12882227;22;20027;-86
2023/05/28 20:49:38;;;;;;;1.88;1.30;;;;;;;;;;12878586;23;20637;-87
2023/05/28 20:54:45;;;;;;;2.55;1.70;;;;;;;;;;12878511;22;20489;-86
2023/05/28 20:59:50;;;;;;;2.85;1.67;;;;;;;;;;12905119;23;20107;-86
2023/05/28 21:04:54;;;;;;;2.65;2.03;;;;;;;;;;12907468;22;20055;-89
2023/05/28 21:10:02;;;;;;;3.20;1.95;;;;;;;;;;12907307;23;20082;-91
2023/05/28 21:15:08;;;;;;;2.55;1.88;;;;;;;;;;12904925;22;20482;-89
2023/05/28 21:20:12;;;;;;;3.07;1.73;;;;;;;;;;12908054;23;20034;-87
2023/05/28 21:25:18;;;;;;;2.97;1.90;;;;;;;;;;12880010;22;20024;-88
2023/05/28 21:30:21;;;;;;;3.13;1.67;;;;;;;;;;12906497;23;20082;-86
2023/05/28 21:35:25;;;;;;;2.70;1.67;;;;;;;;;;12905320;22;20016;-86
2023/05/28 21:40:30;;;;;;;3.03;1.52;;;;;;;;;;12880000;23;20529;-88
2023/05/28 21:45:33;;;;;;;2.58;1.60;;;;;;;;;;12879766;23;20032;-86
2023/05/28 21:50:37;;;;;;;2.75;1.65;;;;;;;;;;12880858;23;20020;-88
2023/05/28 21:55:42;;;;;;;2.15;1.70;;;;;;;;;;12880126;23;20478;-85
2023/05/28 22:00:45;;;;;;;2.47;1.70;;;;;;;;;;12905401;23;20032;-87
2023/05/28 22:05:49;;;;;;;2.35;1.70;;;;;;;;;;12875271;23;20704;-86
2023/05/28 22:10:56;;;;;;;2.65;1.70;;;;;;;;;;12904157;23;20020;-86
2023/05/28 22:16:03;;;;;;;2.72;1.60;;;;;;;;;;12879993;23;20020;-86
2023/05/28 22:21:10;;;;;;;3.15;1.77;;;;;;;;;;12937490;23;20023;-86
2023/05/28 22:26:16;;;;;;;;;;;;;;;;;;12919947;22;20032;-87
2023/05/28 22:31:20;;;;;;;2.73;1.73;;;;;;;;;;12906246;23;19919;-87
2023/05/28 22:36:24;;;;;;;2.55;2.10;;;;;;;;;;12883606;23;20031;-86
2023/05/28 22:41:29;;;;;;;2.70;1.80;;;;;;;;;;12881557;23;20351;-87
2023/05/28 22:46:33;;;;;;;4.23;1.90;;;;;;;;;;12878940;23;20556;-88
2023/05/28 22:51:37;;;;;;;3.75;1.92;;;;;;;;;;12884158;23;20024;-86
2023/05/28 22:56:43;;;;;;;2.83;1.77;;;;;;;;;;12880316;23;20028;-87
2023/05/28 23:01:49;;;;;;;2.75;1.67;;;;;;;;;;12910419;23;20199;-89
2023/05/28 23:06:52;;;;;;;3.15;1.73;;;;;;;;;;12878896;23;20046;-88
2023/05/28 23:11:57;;;;;;;3.25;2.17;;;;;;;;;;12883249;23;20074;-89
2023/05/28 23:17:03;;;;;;;2.30;1.65;;;;;;;;;;12905322;22;20024;-88
2023/05/28 23:22:09;;;;;;;3.20;1.80;;;;;;;;;;12909543;23;20028;-90
2023/05/28 23:27:16;;;;;;;3.55;1.85;;;;;;;;;;12911443;22;20082;-87
2023/05/28 23:32:21;;;;;;;2.88;1.83;;;;;;;;;;12883977;23;20047;-87
2023/05/28 23:37:26;;;;;;;2.30;1.63;;;;;;;;;;12883151;23;20350;-87
2023/05/28 23:42:30;;;;;;;2.35;1.70;;;;;;;;;;12881670;22;20048;-87
2023/05/28 23:47:34;;;;;;;2.38;1.55;;;;;;;;;;12884950;23;20378;-87
2023/05/28 23:52:38;;;;;;;2.85;2.00;;;;;;;;;;12910991;22;20019;-87
2023/05/28 23:57:44;;;;;;;3.78;1.88;;;;;;;;;;12887124;23;20093;-88
